createdAt,value
2023-01-30T00:00:00.423Z,881.8
2023-01-30T00:01:00.479Z,881.8
2023-01-30T00:02:00.476Z,881.8
2023-01-30T00:03:00.434Z,881.8
2023-01-30T00:04:00.421Z,881.7
2023-01-30T00:05:00.488Z,881.8
2023-01-30T00:06:00.530Z,881.7
2023-01-30T00:07:00.530Z,881.7
2023-01-30T00:08:00.381Z,881.7
2023-01-30T00:09:00.379Z,881.7
2023-01-30T00:10:00.410Z,881.7
2023-01-30T00:11:00.382Z,881.7
2023-01-30T00:12:00.585Z,881.7
2023-01-30T00:13:00.401Z,881.7
2023-01-30T00:14:00.405Z,881.7
2023-01-30T00:15:00.472Z,881.6
2023-01-30T00:16:00.493Z,881.6
2023-01-30T00:17:00.409Z,881.6
2023-01-30T00:18:00.717Z,881.6
2023-01-30T00:19:00.478Z,881.6
2023-01-30T00:20:00.408Z,881.6
2023-01-30T00:21:00.452Z,881.6
2023-01-30T00:22:00.503Z,881.6
2023-01-30T00:23:01.293Z,881.6
2023-01-30T00:24:00.382Z,881.6
2023-01-30T00:25:00.541Z,881.6
2023-01-30T00:26:00.437Z,881.6
2023-01-30T00:27:00.415Z,881.6
2023-01-30T00:28:00.390Z,881.6
2023-01-30T00:29:00.447Z,881.6
2023-01-30T00:30:03.236Z,881.5
2023-01-30T00:31:00.636Z,881.5
2023-01-30T00:32:00.510Z,881.5
2023-01-30T00:33:00.400Z,881.5
2023-01-30T00:34:00.416Z,881.5
2023-01-30T00:35:00.469Z,881.5
2023-01-30T00:36:00.404Z,881.5
2023-01-30T00:37:08.081Z,881.5
2023-01-30T00:38:00.400Z,881.5
2023-01-30T00:39:00.388Z,881.5
2023-01-30T00:40:00.404Z,881.5
2023-01-30T00:41:00.415Z,881.5
2023-01-30T00:42:00.418Z,881.5
2023-01-30T00:43:00.528Z,881.4
2023-01-30T00:44:00.435Z,881.4
2023-01-30T00:45:00.468Z,881.4
2023-01-30T00:46:00.620Z,881.4
2023-01-30T00:47:00.429Z,881.4
2023-01-30T00:48:00.455Z,881.3
2023-01-30T00:49:00.584Z,881.4
2023-01-30T00:50:00.453Z,881.4
2023-01-30T00:51:00.496Z,881.4
2023-01-30T00:52:00.481Z,881.4
2023-01-30T00:53:00.393Z,881.4
2023-01-30T00:54:00.380Z,881.4
2023-01-30T00:55:00.695Z,881.4
2023-01-30T00:56:00.387Z,881.4
2023-01-30T00:57:00.423Z,881.4
2023-01-30T00:58:00.390Z,881.4
2023-01-30T00:59:00.429Z,881.4
2023-01-30T01:00:00.404Z,881.4
2023-01-30T01:01:00.510Z,881.4
2023-01-30T01:02:00.544Z,881.3
2023-01-30T01:03:00.491Z,881.4
2023-01-30T01:04:00.394Z,881.4
2023-01-30T01:05:00.457Z,881.4
2023-01-30T01:06:00.465Z,881.3
2023-01-30T01:07:00.475Z,881.4
2023-01-30T01:08:00.422Z,881.4
2023-01-30T01:09:00.404Z,881.4
2023-01-30T01:10:00.423Z,881.3
2023-01-30T01:11:00.423Z,881.3
2023-01-30T01:12:00.427Z,881.3
2023-01-30T01:13:00.533Z,881.3
2023-01-30T01:14:00.405Z,881.3
2023-01-30T01:15:00.432Z,881.3
2023-01-30T01:16:00.427Z,881.3
2023-01-30T01:17:00.443Z,881.3
2023-01-30T01:18:00.400Z,881.4
2023-01-30T01:19:00.633Z,881.4
2023-01-30T01:20:00.485Z,881.4
2023-01-30T01:21:00.475Z,881.4
2023-01-30T01:22:00.391Z,881.4
2023-01-30T01:23:00.383Z,881.4
2023-01-30T01:24:00.445Z,881.4
2023-01-30T01:25:00.430Z,881.4
2023-01-30T01:26:00.459Z,881.4
2023-01-30T01:27:00.404Z,881.4
2023-01-30T01:28:00.534Z,881.4
2023-01-30T01:29:00.507Z,881.4
2023-01-30T01:30:02.275Z,881.4
2023-01-30T01:31:00.391Z,881.4
2023-01-30T01:32:00.713Z,881.4
2023-01-30T01:33:00.404Z,881.4
2023-01-30T01:34:00.393Z,881.4
2023-01-30T01:35:00.513Z,881.4
2023-01-30T01:36:00.448Z,881.5
2023-01-30T01:37:00.409Z,881.5
2023-01-30T01:38:00.420Z,881.4
2023-01-30T01:39:00.395Z,881.4
2023-01-30T01:40:00.406Z,881.5
2023-01-30T01:41:00.539Z,881.5
2023-01-30T01:42:00.387Z,881.5
2023-01-30T01:43:00.475Z,881.5
2023-01-30T01:44:00.529Z,881.5
2023-01-30T01:45:00.377Z,881.5
2023-01-30T01:46:00.421Z,881.5
2023-01-30T01:47:01.323Z,881.5
2023-01-30T01:48:00.383Z,881.5
2023-01-30T01:49:00.430Z,881.6
2023-01-30T01:50:00.409Z,881.6
2023-01-30T01:51:00.420Z,881.6
2023-01-30T01:52:00.387Z,881.6
2023-01-30T01:53:00.474Z,881.6
2023-01-30T01:54:00.406Z,881.6
2023-01-30T01:55:00.405Z,881.6
2023-01-30T01:56:00.382Z,881.7
2023-01-30T01:57:00.407Z,881.7
2023-01-30T01:58:00.415Z,881.7
2023-01-30T01:59:00.438Z,881.7
2023-01-30T02:00:00.446Z,881.7
2023-01-30T02:01:00.479Z,881.7
2023-01-30T02:02:00.467Z,881.7
2023-01-30T02:03:00.593Z,881.7
2023-01-30T02:04:00.427Z,881.7
2023-01-30T02:05:00.521Z,881.7
2023-01-30T02:06:00.432Z,881.7
2023-01-30T02:07:00.476Z,881.8
2023-01-30T02:08:00.468Z,881.8
2023-01-30T02:09:00.389Z,881.8
2023-01-30T02:10:00.422Z,881.8
2023-01-30T02:11:00.586Z,881.8
2023-01-30T02:12:00.452Z,881.8
2023-01-30T02:13:00.512Z,881.8
2023-01-30T02:14:00.551Z,881.8
2023-01-30T02:15:00.486Z,881.8
2023-01-30T02:16:00.500Z,881.8
2023-01-30T02:17:00.578Z,881.8
2023-01-30T02:18:00.432Z,881.8
2023-01-30T02:19:00.440Z,881.8
2023-01-30T02:20:00.385Z,881.8
2023-01-30T02:21:00.408Z,881.8
2023-01-30T02:22:00.388Z,881.8
2023-01-30T02:23:00.553Z,881.8
2023-01-30T02:24:00.416Z,881.8
2023-01-30T02:25:00.468Z,881.8
2023-01-30T02:26:00.407Z,881.8
2023-01-30T02:27:00.414Z,881.8
2023-01-30T02:28:00.381Z,881.8
2023-01-30T02:29:00.647Z,881.8
2023-01-30T02:30:00.419Z,881.8
2023-01-30T02:31:00.706Z,881.9
2023-01-30T02:32:00.379Z,881.9
2023-01-30T02:33:00.421Z,881.9
2023-01-30T02:34:00.390Z,881.9
2023-01-30T02:35:00.478Z,881.9
2023-01-30T02:36:00.385Z,881.9
2023-01-30T02:37:00.378Z,881.9
2023-01-30T02:38:00.384Z,881.9
2023-01-30T02:39:00.380Z,881.9
2023-01-30T02:40:00.414Z,881.8
2023-01-30T02:41:00.544Z,881.8
2023-01-30T02:42:00.385Z,881.8
2023-01-30T02:43:00.410Z,881.8
2023-01-30T02:44:00.618Z,881.8
2023-01-30T02:45:00.525Z,881.8
2023-01-30T02:46:00.464Z,881.8
2023-01-30T02:47:00.510Z,881.9
2023-01-30T02:48:00.426Z,881.9
2023-01-30T02:49:00.431Z,881.9
2023-01-30T02:50:00.432Z,881.9
2023-01-30T02:51:00.478Z,881.9
2023-01-30T02:52:00.492Z,881.9
2023-01-30T02:53:00.568Z,881.9
2023-01-30T02:54:00.450Z,881.9
2023-01-30T02:55:00.379Z,881.9
2023-01-30T02:56:00.478Z,881.9
2023-01-30T02:57:00.410Z,881.9
2023-01-30T02:58:00.459Z,881.9
2023-01-30T02:59:00.599Z,881.9
2023-01-30T03:00:00.612Z,881.9
2023-01-30T03:01:00.490Z,881.9
2023-01-30T03:02:00.472Z,881.9
2023-01-30T03:03:00.497Z,881.9
2023-01-30T03:04:00.428Z,881.9
2023-01-30T03:05:00.544Z,881.9
2023-01-30T03:06:00.384Z,881.9
2023-01-30T03:07:00.383Z,881.9
2023-01-30T03:08:00.418Z,881.9
2023-01-30T03:09:00.391Z,881.9
2023-01-30T03:10:00.490Z,881.9
2023-01-30T03:11:00.481Z,881.9
2023-01-30T03:12:00.408Z,881.9
2023-01-30T03:13:00.424Z,881.8
2023-01-30T03:14:00.380Z,881.9
2023-01-30T03:15:00.518Z,881.9
2023-01-30T03:16:00.453Z,881.8
2023-01-30T03:17:00.515Z,881.9
2023-01-30T03:18:00.394Z,881.9
2023-01-30T03:19:00.395Z,881.8
2023-01-30T03:20:00.428Z,881.8
2023-01-30T03:21:00.397Z,881.9
2023-01-30T03:22:00.419Z,881.9
2023-01-30T03:23:00.651Z,881.9
2023-01-30T03:24:00.403Z,881.9
2023-01-30T03:25:00.398Z,881.9
2023-01-30T03:26:00.411Z,881.9
2023-01-30T03:27:00.385Z,881.9
2023-01-30T03:28:00.387Z,881.9
2023-01-30T03:29:00.472Z,881.9
2023-01-30T03:30:00.534Z,881.9
2023-01-30T03:31:00.626Z,881.8
2023-01-30T03:32:00.576Z,881.8
2023-01-30T03:33:00.432Z,881.9
2023-01-30T03:34:00.478Z,881.9
2023-01-30T03:35:00.385Z,881.8
2023-01-30T03:36:00.467Z,881.8
2023-01-30T03:37:00.488Z,881.9
2023-01-30T03:38:00.533Z,881.9
2023-01-30T03:39:00.404Z,881.8
2023-01-30T03:40:00.454Z,881.8
2023-01-30T03:41:00.461Z,881.8
2023-01-30T03:42:00.503Z,881.8
2023-01-30T03:43:00.393Z,881.8
2023-01-30T03:44:00.477Z,881.8
2023-01-30T03:45:00.474Z,881.8
2023-01-30T03:46:00.580Z,881.8
2023-01-30T03:47:00.419Z,881.8
2023-01-30T03:48:00.507Z,881.8
2023-01-30T03:49:00.421Z,881.8
2023-01-30T03:50:00.407Z,881.9
2023-01-30T03:51:00.394Z,881.9
2023-01-30T03:52:00.415Z,881.9
2023-01-30T03:53:00.415Z,881.9
2023-01-30T03:54:00.574Z,881.9
2023-01-30T03:55:00.387Z,881.9
2023-01-30T03:56:00.422Z,881.9
2023-01-30T03:57:00.414Z,881.9
2023-01-30T03:58:00.439Z,882.0
2023-01-30T03:59:00.407Z,882.0
2023-01-30T04:00:00.591Z,882.0
2023-01-30T04:01:00.512Z,882.0
2023-01-30T04:02:00.431Z,882.0
2023-01-30T04:03:00.436Z,881.9
2023-01-30T04:04:00.425Z,882.0
2023-01-30T04:05:00.430Z,882.0
2023-01-30T04:06:00.608Z,882.0
2023-01-30T04:07:00.507Z,882.0
2023-01-30T04:08:00.473Z,882.0
2023-01-30T04:09:00.479Z,882.0
2023-01-30T04:10:00.500Z,882.0
2023-01-30T04:11:00.399Z,882.0
2023-01-30T04:12:00.487Z,882.0
2023-01-30T04:13:00.406Z,882.0
2023-01-30T04:14:00.393Z,882.0
2023-01-30T04:15:00.455Z,882.1
2023-01-30T04:16:00.422Z,882.1
2023-01-30T04:17:00.403Z,882.1
2023-01-30T04:18:00.527Z,882.1
2023-01-30T04:19:00.397Z,882.1
2023-01-30T04:20:00.397Z,882.1
2023-01-30T04:21:00.421Z,882.1
2023-01-30T04:22:00.406Z,882.1
2023-01-30T04:23:00.433Z,882.1
2023-01-30T04:24:00.458Z,882.1
2023-01-30T04:25:00.418Z,882.1
2023-01-30T04:26:00.443Z,882.1
2023-01-30T04:27:00.409Z,882.1
2023-01-30T04:28:00.411Z,882.1
2023-01-30T04:29:00.428Z,882.1
2023-01-30T04:30:00.542Z,882.1
2023-01-30T04:31:00.498Z,882.1
2023-01-30T04:32:00.409Z,882.1
2023-01-30T04:33:00.411Z,882.1
2023-01-30T04:34:00.431Z,882.1
2023-01-30T04:35:00.473Z,882.1
2023-01-30T04:36:00.547Z,882.1
2023-01-30T04:37:00.434Z,882.1
2023-01-30T04:38:00.466Z,882.1
2023-01-30T04:39:00.455Z,882.1
2023-01-30T04:40:00.400Z,882.1
2023-01-30T04:41:00.475Z,882.1
2023-01-30T04:42:00.633Z,882.1
2023-01-30T04:43:00.429Z,882.1
2023-01-30T04:44:00.429Z,882.2
2023-01-30T04:45:00.510Z,882.2
2023-01-30T04:46:00.520Z,882.1
2023-01-30T04:47:00.412Z,882.2
2023-01-30T04:48:00.462Z,882.2
2023-01-30T04:49:00.386Z,882.2
2023-01-30T04:50:00.420Z,882.2
2023-01-30T04:51:00.391Z,882.2
2023-01-30T04:52:00.392Z,882.2
2023-01-30T04:53:00.391Z,882.2
2023-01-30T04:54:00.600Z,882.2
2023-01-30T04:55:00.412Z,882.2
2023-01-30T04:56:00.423Z,882.3
2023-01-30T04:57:00.440Z,882.3
2023-01-30T04:58:00.433Z,882.3
2023-01-30T04:59:00.422Z,882.3
2023-01-30T05:00:00.551Z,882.3
2023-01-30T05:01:00.666Z,882.3
2023-01-30T05:02:00.498Z,882.3
2023-01-30T05:03:00.422Z,882.3
2023-01-30T05:04:00.392Z,882.3
2023-01-30T05:05:00.393Z,882.3
2023-01-30T05:06:00.598Z,882.4
2023-01-30T05:07:00.418Z,882.4
2023-01-30T05:08:00.379Z,882.4
2023-01-30T05:09:00.434Z,882.4
2023-01-30T05:10:00.451Z,882.4
2023-01-30T05:11:00.407Z,882.4
2023-01-30T05:12:00.536Z,882.5
2023-01-30T05:13:00.443Z,882.5
2023-01-30T05:14:00.407Z,882.4
2023-01-30T05:15:00.435Z,882.5
2023-01-30T05:16:00.580Z,882.4
2023-01-30T05:17:00.644Z,882.4
2023-01-30T05:18:00.538Z,882.4
2023-01-30T05:19:00.396Z,882.4
2023-01-30T05:20:00.436Z,882.4
2023-01-30T05:21:00.397Z,882.5
2023-01-30T05:22:00.400Z,882.5
2023-01-30T05:23:00.560Z,882.5
2023-01-30T05:24:00.431Z,882.5
2023-01-30T05:25:00.387Z,882.5
2023-01-30T05:26:00.385Z,882.5
2023-01-30T05:27:00.424Z,882.6
2023-01-30T05:28:00.409Z,882.6
2023-01-30T05:29:00.590Z,882.6
2023-01-30T05:30:00.409Z,882.6
2023-01-30T05:31:00.505Z,882.6
2023-01-30T05:32:00.492Z,882.6
2023-01-30T05:33:00.413Z,882.6
2023-01-30T05:34:00.428Z,882.6
2023-01-30T05:35:00.557Z,882.6
2023-01-30T05:36:00.400Z,882.6
2023-01-30T05:37:00.610Z,882.6
2023-01-30T05:38:00.653Z,882.6
2023-01-30T05:39:00.385Z,882.6
2023-01-30T05:40:00.489Z,882.6
2023-01-30T05:41:00.526Z,882.6
2023-01-30T05:42:00.438Z,882.7
2023-01-30T05:43:00.477Z,882.7
2023-01-30T05:44:00.406Z,882.7
2023-01-30T05:45:00.416Z,882.7
2023-01-30T05:46:00.374Z,882.7
2023-01-30T05:47:00.599Z,882.7
2023-01-30T05:48:01.674Z,882.8
2023-01-30T05:49:00.469Z,882.8
2023-01-30T05:50:00.487Z,882.8
2023-01-30T05:51:00.423Z,882.8
2023-01-30T05:52:00.391Z,882.8
2023-01-30T05:53:00.501Z,882.9
2023-01-30T05:54:00.449Z,882.9
2023-01-30T05:55:00.432Z,882.8
2023-01-30T05:56:00.546Z,882.8
2023-01-30T05:57:00.392Z,882.8
2023-01-30T05:58:00.390Z,882.8
2023-01-30T05:59:00.539Z,882.9
2023-01-30T06:00:00.388Z,882.9
2023-01-30T06:01:00.424Z,882.9
2023-01-30T06:02:00.408Z,882.9
2023-01-30T06:03:00.453Z,882.9
2023-01-30T06:04:00.469Z,882.9
2023-01-30T06:05:00.506Z,882.9
2023-01-30T06:06:00.447Z,882.9
2023-01-30T06:07:00.527Z,882.9
2023-01-30T06:08:00.382Z,882.9
2023-01-30T06:09:00.420Z,882.9
2023-01-30T06:10:00.419Z,882.9
2023-01-30T06:11:00.491Z,882.9
2023-01-30T06:12:01.073Z,882.9
2023-01-30T06:13:00.401Z,882.9
2023-01-30T06:14:00.419Z,882.9
2023-01-30T06:15:00.405Z,882.9
2023-01-30T06:16:00.439Z,882.9
2023-01-30T06:17:00.468Z,882.9
2023-01-30T06:18:00.565Z,882.9
2023-01-30T06:19:00.474Z,883.0
2023-01-30T06:20:00.511Z,883.0
2023-01-30T06:21:00.485Z,883.0
2023-01-30T06:22:00.390Z,882.9
2023-01-30T06:23:00.406Z,883.0
2023-01-30T06:24:00.509Z,883.0
2023-01-30T06:25:00.388Z,883.0
2023-01-30T06:26:02.660Z,883.0
2023-01-30T06:27:00.428Z,883.1
2023-01-30T06:28:00.407Z,883.0
2023-01-30T06:29:00.387Z,883.0
2023-01-30T06:30:00.755Z,883.0
2023-01-30T06:31:00.589Z,883.0
2023-01-30T06:32:00.459Z,883.0
2023-01-30T06:33:00.473Z,883.0
2023-01-30T06:34:00.394Z,883.1
2023-01-30T06:35:00.395Z,883.1
2023-01-30T06:36:00.603Z,883.0
2023-01-30T06:37:00.410Z,883.0
2023-01-30T06:38:00.436Z,883.0
2023-01-30T06:39:00.404Z,883.0
2023-01-30T06:40:00.412Z,883.0
2023-01-30T06:41:00.600Z,883.0
2023-01-30T06:42:00.573Z,883.0
2023-01-30T06:43:00.393Z,883.0
2023-01-30T06:44:00.463Z,883.0
2023-01-30T06:45:00.411Z,882.9
2023-01-30T06:46:00.607Z,882.9
2023-01-30T06:47:00.413Z,883.0
2023-01-30T06:48:00.643Z,883.0
2023-01-30T06:49:00.507Z,883.0
2023-01-30T06:50:00.481Z,883.0
2023-01-30T06:51:00.498Z,882.9
2023-01-30T06:52:00.415Z,883.0
2023-01-30T06:53:00.443Z,883.0
2023-01-30T06:54:00.571Z,883.0
2023-01-30T06:55:00.438Z,882.9
2023-01-30T06:56:00.417Z,882.9
2023-01-30T06:57:00.620Z,882.9
2023-01-30T06:58:00.425Z,882.9
2023-01-30T06:59:00.393Z,882.9
2023-01-30T07:00:00.488Z,882.9
2023-01-30T07:01:00.435Z,882.9
2023-01-30T07:02:00.446Z,882.9
2023-01-30T07:03:00.424Z,882.9
2023-01-30T07:04:00.482Z,882.9
2023-01-30T07:05:00.429Z,882.9
2023-01-30T07:06:00.523Z,882.9
2023-01-30T07:07:00.406Z,882.9
2023-01-30T07:08:00.450Z,882.9
2023-01-30T07:09:00.418Z,883.0
2023-01-30T07:10:07.807Z,882.9
2023-01-30T07:11:00.509Z,882.9
2023-01-30T07:12:00.567Z,882.9
2023-01-30T07:13:00.646Z,882.9
2023-01-30T07:14:00.433Z,882.9
2023-01-30T07:15:00.381Z,882.9
2023-01-30T07:16:00.548Z,882.9
2023-01-30T07:17:00.503Z,882.9
2023-01-30T07:18:00.412Z,882.9
2023-01-30T07:19:00.429Z,882.9
2023-01-30T07:20:00.433Z,882.9
2023-01-30T07:21:00.453Z,882.9
2023-01-30T07:22:02.435Z,882.9
2023-01-30T07:23:00.409Z,882.9
2023-01-30T07:24:00.392Z,882.9
2023-01-30T07:25:00.399Z,882.9
2023-01-30T07:26:00.386Z,882.9
2023-01-30T07:27:00.416Z,882.9
2023-01-30T07:28:00.628Z,882.9
2023-01-30T07:29:00.530Z,882.9
2023-01-30T07:30:00.454Z,882.8
2023-01-30T07:31:00.489Z,882.9
2023-01-30T07:32:00.430Z,882.8
2023-01-30T07:33:00.520Z,882.8
2023-01-30T07:34:00.777Z,882.8
2023-01-30T07:35:00.396Z,882.8
2023-01-30T07:36:00.424Z,882.8
2023-01-30T07:37:00.635Z,882.8
2023-01-30T07:38:00.397Z,882.8
2023-01-30T07:39:00.409Z,882.8
2023-01-30T07:40:00.432Z,882.8
2023-01-30T07:41:00.428Z,882.8
2023-01-30T07:42:00.393Z,882.7
2023-01-30T07:43:00.644Z,882.7
2023-01-30T07:44:00.380Z,882.7
2023-01-30T07:45:00.391Z,882.7
2023-01-30T07:46:00.405Z,882.7
2023-01-30T07:47:00.415Z,882.7
2023-01-30T07:48:00.442Z,882.7
2023-01-30T07:49:00.587Z,882.7
2023-01-30T07:50:00.389Z,882.7
2023-01-30T07:51:00.431Z,882.7
2023-01-30T07:52:00.429Z,882.7
2023-01-30T07:53:00.449Z,882.7
2023-01-30T07:54:00.455Z,882.7
2023-01-30T07:55:01.722Z,882.7
2023-01-30T07:56:00.424Z,882.7
2023-01-30T07:57:00.485Z,882.7
2023-01-30T07:58:00.515Z,882.6
2023-01-30T07:59:00.424Z,882.7
2023-01-30T08:00:00.480Z,882.7
2023-01-30T08:01:00.680Z,882.6
2023-01-30T08:02:00.503Z,882.7
2023-01-30T08:03:00.602Z,882.6
2023-01-30T08:04:00.486Z,882.6
2023-01-30T08:05:00.572Z,882.7
2023-01-30T08:06:00.422Z,882.7
2023-01-30T08:07:00.435Z,882.6
2023-01-30T08:08:00.415Z,882.6
2023-01-30T08:09:00.583Z,882.6
2023-01-30T08:10:00.442Z,882.6
2023-01-30T08:11:00.426Z,882.5
2023-01-30T08:12:00.412Z,882.6
2023-01-30T08:13:00.404Z,882.6
2023-01-30T08:14:00.417Z,882.5
2023-01-30T08:15:00.489Z,882.5
2023-01-30T08:16:00.432Z,882.5
2023-01-30T08:17:00.403Z,882.5
2023-01-30T08:18:00.423Z,882.5
2023-01-30T08:19:00.460Z,882.5
2023-01-30T08:20:00.382Z,882.4
2023-01-30T08:21:00.497Z,882.4
2023-01-30T08:22:00.415Z,882.4
2023-01-30T08:23:00.387Z,882.4
2023-01-30T08:24:01.496Z,882.4
2023-01-30T08:25:00.381Z,882.4
2023-01-30T08:26:00.428Z,882.3
2023-01-30T08:27:00.528Z,882.3
2023-01-30T08:28:00.492Z,882.4
2023-01-30T08:29:00.397Z,882.4
2023-01-30T08:30:00.382Z,882.4
2023-01-30T08:31:00.551Z,882.3
2023-01-30T08:32:00.432Z,882.3
2023-01-30T08:33:00.511Z,882.3
2023-01-30T08:34:00.558Z,882.3
2023-01-30T08:35:00.482Z,882.3
2023-01-30T08:36:00.445Z,882.2
2023-01-30T08:37:00.472Z,882.2
2023-01-30T08:38:00.485Z,882.2
2023-01-30T08:39:00.620Z,882.2
2023-01-30T08:40:00.514Z,882.2
2023-01-30T08:41:00.425Z,882.2
2023-01-30T08:42:00.475Z,882.2
2023-01-30T08:43:00.433Z,882.2
2023-01-30T08:44:00.433Z,882.2
2023-01-30T08:45:00.477Z,882.2
2023-01-30T08:46:00.410Z,882.2
2023-01-30T08:47:00.398Z,882.1
2023-01-30T08:48:00.401Z,882.1
2023-01-30T08:49:00.416Z,882.1
2023-01-30T08:50:00.679Z,882.1
2023-01-30T08:51:00.521Z,882.1
2023-01-30T08:52:00.428Z,882.1
2023-01-30T08:53:00.395Z,882.1
2023-01-30T08:54:00.413Z,882.1
2023-01-30T08:55:00.445Z,882.0
2023-01-30T08:56:00.421Z,882.0
2023-01-30T08:57:00.484Z,882.0
2023-01-30T08:58:00.398Z,882.0
2023-01-30T08:59:00.402Z,882.0
2023-01-30T09:00:00.411Z,882.0
2023-01-30T09:01:00.420Z,882.0
2023-01-30T09:02:00.427Z,882.0
2023-01-30T09:03:00.546Z,881.9
2023-01-30T09:04:00.433Z,881.9
2023-01-30T09:05:00.561Z,881.9
2023-01-30T09:06:00.386Z,881.9
2023-01-30T09:07:00.409Z,881.9
2023-01-30T09:08:00.412Z,881.9
2023-01-30T09:09:00.546Z,881.9
2023-01-30T09:10:00.397Z,881.8
2023-01-30T09:11:00.388Z,881.8
2023-01-30T09:12:00.409Z,881.8
2023-01-30T09:13:00.413Z,881.8
2023-01-30T09:14:00.398Z,881.8
2023-01-30T09:15:00.556Z,881.8
2023-01-30T09:16:00.436Z,881.8
2023-01-30T09:17:00.493Z,881.7
2023-01-30T09:18:00.423Z,881.7
2023-01-30T09:19:00.401Z,881.7
2023-01-30T09:20:00.580Z,881.7
2023-01-30T09:21:00.565Z,881.7
2023-01-30T09:22:00.410Z,881.7
2023-01-30T09:23:00.425Z,881.7
2023-01-30T09:24:00.389Z,881.7
2023-01-30T09:25:00.417Z,881.7
2023-01-30T09:26:00.414Z,881.7
2023-01-30T09:27:00.585Z,881.7
2023-01-30T09:28:00.434Z,881.6
2023-01-30T09:29:00.405Z,881.6
2023-01-30T09:30:00.401Z,881.6
2023-01-30T09:31:00.577Z,881.6
2023-01-30T09:32:00.444Z,881.6
2023-01-30T09:33:00.497Z,881.6
2023-01-30T09:34:00.432Z,881.6
2023-01-30T09:35:00.407Z,881.6
2023-01-30T09:36:00.502Z,881.5
2023-01-30T09:37:00.711Z,881.5
2023-01-30T09:38:00.382Z,881.5
2023-01-30T09:39:00.625Z,881.5
2023-01-30T09:40:00.424Z,881.5
2023-01-30T09:41:00.426Z,881.4
2023-01-30T09:42:00.421Z,881.4
2023-01-30T09:43:00.416Z,881.4
2023-01-30T09:44:00.397Z,881.4
2023-01-30T09:45:00.563Z,881.4
2023-01-30T09:46:00.537Z,881.4
2023-01-30T09:47:00.405Z,881.4
2023-01-30T09:48:01.899Z,881.4
2023-01-30T09:49:00.406Z,881.3
2023-01-30T09:50:00.416Z,881.3
2023-01-30T09:51:00.563Z,881.3
2023-01-30T09:52:00.534Z,881.2
2023-01-30T09:53:00.532Z,881.2
2023-01-30T09:54:01.222Z,881.2
2023-01-30T09:55:00.516Z,881.2
2023-01-30T09:56:00.449Z,881.2
2023-01-30T09:57:00.554Z,881.2
2023-01-30T09:58:00.491Z,881.2
2023-01-30T09:59:00.492Z,881.1
2023-01-30T10:00:00.525Z,881.1
2023-01-30T10:01:00.481Z,881.1
2023-01-30T10:02:00.384Z,881.1
2023-01-30T10:03:00.439Z,881.1
2023-01-30T10:04:00.402Z,881.1
2023-01-30T10:05:02.014Z,881.0
2023-01-30T10:06:00.743Z,881.0
2023-01-30T10:07:00.481Z,881.0
2023-01-30T10:08:00.704Z,881.0
2023-01-30T10:09:00.418Z,880.9
2023-01-30T10:10:00.432Z,880.9
2023-01-30T10:11:09.692Z,881.0
2023-01-30T10:12:00.573Z,881.0
2023-01-30T10:13:00.412Z,880.9
2023-01-30T10:14:00.401Z,880.9
2023-01-30T10:15:00.452Z,880.9
2023-01-30T10:16:00.405Z,880.9
2023-01-30T10:17:00.415Z,880.9
2023-01-30T10:18:00.522Z,880.8
2023-01-30T10:19:00.412Z,880.8
2023-01-30T10:20:00.389Z,880.8
2023-01-30T10:21:00.389Z,880.8
2023-01-30T10:22:00.511Z,880.8
2023-01-30T10:23:00.578Z,880.8
2023-01-30T10:24:00.474Z,880.8
2023-01-30T10:25:00.423Z,880.8
2023-01-30T10:26:00.409Z,880.8
2023-01-30T10:27:01.194Z,880.8
2023-01-30T10:28:00.406Z,880.9
2023-01-30T10:29:07.400Z,880.9
2023-01-30T10:30:00.532Z,880.9
2023-01-30T10:31:00.509Z,880.9
2023-01-30T10:32:00.430Z,881.0
2023-01-30T10:33:00.456Z,881.0
2023-01-30T10:34:00.414Z,881.0
2023-01-30T10:35:00.478Z,880.9
2023-01-30T10:36:00.568Z,880.9
2023-01-30T10:37:00.465Z,880.9
2023-01-30T10:38:00.634Z,880.8
2023-01-30T10:39:00.384Z,880.8
2023-01-30T10:40:00.420Z,880.7
2023-01-30T10:41:00.410Z,880.7
2023-01-30T10:42:00.495Z,880.7
2023-01-30T10:43:00.405Z,880.7
2023-01-30T10:44:00.405Z,880.7
2023-01-30T10:45:00.390Z,880.7
2023-01-30T10:46:00.396Z,880.7
2023-01-30T10:47:00.388Z,880.7
2023-01-30T10:48:00.506Z,880.7
2023-01-30T10:49:00.381Z,880.8
2023-01-30T10:50:00.396Z,880.7
2023-01-30T10:51:00.385Z,880.8
2023-01-30T10:52:00.407Z,880.8
2023-01-30T10:53:00.545Z,880.7
2023-01-30T10:54:00.506Z,880.8
2023-01-30T10:55:00.442Z,880.7
2023-01-30T10:56:00.460Z,880.8
2023-01-30T10:57:00.398Z,880.7
2023-01-30T10:58:00.418Z,880.7
2023-01-30T10:59:00.413Z,880.7
2023-01-30T11:00:00.554Z,880.7
2023-01-30T11:01:00.432Z,880.8
2023-01-30T11:02:00.544Z,880.8
2023-01-30T11:03:00.458Z,880.8
2023-01-30T11:04:00.484Z,880.8
2023-01-30T11:05:01.099Z,880.9
2023-01-30T11:06:00.520Z,880.8
2023-01-30T11:07:00.532Z,880.8
2023-01-30T11:08:00.518Z,880.7
2023-01-30T11:09:00.423Z,880.7
2023-01-30T11:10:00.405Z,880.7
2023-01-30T11:11:00.533Z,880.7
2023-01-30T11:12:00.422Z,880.7
2023-01-30T11:13:00.393Z,880.7
2023-01-30T11:14:00.388Z,880.7
2023-01-30T11:15:00.446Z,880.6
2023-01-30T11:16:00.428Z,880.7
2023-01-30T11:17:00.513Z,880.7
2023-01-30T11:18:22.114Z,880.6
2023-01-30T11:19:21.284Z,880.7
2023-01-30T11:20:00.448Z,880.6
2023-01-30T11:21:00.438Z,880.6
2023-01-30T11:22:00.412Z,880.6
2023-01-30T11:23:00.459Z,880.6
2023-01-30T11:24:00.381Z,880.6
2023-01-30T11:25:00.377Z,880.6
2023-01-30T11:26:10.833Z,880.5
2023-01-30T11:27:00.521Z,880.5
2023-01-30T11:28:00.439Z,880.5
2023-01-30T11:29:00.584Z,880.5
2023-01-30T11:30:00.508Z,880.5
2023-01-30T11:31:00.481Z,880.5
2023-01-30T11:32:00.581Z,880.5
2023-01-30T11:33:00.445Z,880.5
2023-01-30T11:34:00.427Z,880.5
2023-01-30T11:35:00.565Z,880.5
2023-01-30T11:36:00.473Z,880.5
2023-01-30T11:37:00.468Z,880.5
2023-01-30T11:38:00.670Z,880.5
2023-01-30T11:39:00.408Z,880.5
2023-01-30T11:40:00.570Z,880.4
2023-01-30T11:41:00.422Z,880.5
2023-01-30T11:42:00.397Z,880.4
2023-01-30T11:43:00.386Z,880.5
2023-01-30T11:44:00.381Z,880.4
2023-01-30T11:45:16.185Z,880.5
2023-01-30T11:46:00.740Z,880.5
2023-01-30T11:47:00.448Z,880.5
2023-01-30T11:48:04.064Z,880.5
2023-01-30T11:49:08.659Z,880.4
2023-01-30T11:50:01.170Z,880.5
2023-01-30T11:51:00.409Z,880.5
2023-01-30T11:52:00.451Z,880.5
2023-01-30T11:53:00.512Z,880.6
2023-01-30T11:54:00.406Z,880.5
2023-01-30T11:55:00.407Z,880.6
2023-01-30T11:56:05.710Z,880.6
2023-01-30T11:57:00.401Z,880.6
2023-01-30T11:58:00.578Z,880.6
2023-01-30T11:59:00.407Z,880.6
2023-01-30T12:00:00.397Z,880.7
2023-01-30T12:01:00.396Z,880.6
2023-01-30T12:02:00.448Z,880.6
2023-01-30T12:03:00.418Z,880.6
2023-01-30T12:04:00.559Z,880.6
2023-01-30T12:05:00.413Z,880.6
2023-01-30T12:06:00.411Z,880.6
2023-01-30T12:07:00.393Z,880.6
2023-01-30T12:08:00.562Z,880.6
2023-01-30T12:09:00.583Z,880.6
2023-01-30T12:10:00.478Z,880.6
2023-01-30T12:11:00.424Z,880.6
2023-01-30T12:12:00.479Z,880.7
2023-01-30T12:13:00.456Z,880.7
2023-01-30T12:14:00.423Z,880.6
2023-01-30T12:15:00.410Z,880.7
2023-01-30T12:16:00.647Z,880.6
2023-01-30T12:17:00.460Z,880.7
2023-01-30T12:18:00.400Z,880.7
2023-01-30T12:19:00.447Z,880.7
2023-01-30T12:20:00.478Z,880.7
2023-01-30T12:21:00.449Z,880.7
2023-01-30T12:22:00.622Z,880.7
2023-01-30T12:23:00.388Z,880.7
2023-01-30T12:24:00.582Z,880.7
2023-01-30T12:25:00.425Z,880.7
2023-01-30T12:26:00.468Z,880.7
2023-01-30T12:27:00.386Z,880.7
2023-01-30T12:28:00.573Z,880.7
2023-01-30T12:29:00.433Z,880.7
2023-01-30T12:30:00.441Z,880.7
2023-01-30T12:31:00.405Z,880.7
2023-01-30T12:32:00.387Z,880.7
2023-01-30T12:34:00.627Z,880.7
2023-01-30T12:35:00.439Z,880.7
2023-01-30T12:36:00.385Z,880.7
2023-01-30T12:37:00.390Z,880.7
2023-01-30T12:38:00.407Z,880.7
2023-01-30T12:39:00.544Z,880.7
2023-01-30T12:40:00.544Z,880.7
2023-01-30T12:41:00.380Z,880.7
2023-01-30T12:42:00.393Z,880.6
2023-01-30T12:43:00.403Z,880.6
2023-01-30T12:44:00.387Z,880.7
2023-01-30T12:45:00.424Z,880.7
2023-01-30T12:46:00.639Z,880.7
2023-01-30T12:47:00.398Z,880.7
2023-01-30T12:48:00.419Z,880.7
2023-01-30T12:49:11.051Z,880.7
2023-01-30T12:50:00.406Z,880.7
2023-01-30T12:51:00.409Z,880.7
2023-01-30T12:52:00.498Z,880.7
2023-01-30T12:53:00.425Z,880.7